Latest Weather Observations for Horn Island

IDQ60801

Issued at 10:35 pm EST Wednesday 30 July 2014 (issued every 30 minutes, with the page automatically refreshed every 10 minutes)

About weather observations | Map of weather stations | Latest weather observations for QLD | Other Formats
Station Details ID: 027058 Name: HORN ISLAND Lat: -10.58 Lon: 142.29 Height: 4.0 m
Data from the previous 72 hours. | See also: Recent months at Horn Island
Date/Time
EST
Temp
°C
App
Temp
°C
Dew
Point
Rel
Hum
%
Delta-T
°C
Wind Press
QNH
hPa
Press
MSL
hPa
Rain
since 9 am
mm
Dir
 
Spd
km/h
Gust
km/h
Spd
kts
Gust
kts
30/10:30pm 24.0 23.9 19.9 78 2.6 SE 20 28 11 15 1015.3 - 0.0
30/10:00pm 24.0 24.1 19.9 78 2.6 SE 19 22 10 12 1015.4 - 0.0
30/09:30pm 24.1 24.2 20.0 78 2.6 SE 19 24 10 13 1015.4 - 0.0
30/09:00pm 24.3 24.1 19.8 76 2.9 ESE 20 32 11 17 1015.3 1015.3 0.0
30/08:30pm 24.4 23.2 19.2 73 3.3 ESE 24 32 13 17 1015.1 - 0.0
30/08:00pm 24.5 23.8 19.6 74 3.2 ESE 22 33 12 18 1014.8 - 0.0
30/07:30pm 24.5 23.2 19.1 72 3.4 ESE 24 32 13 17 1014.4 - 0.0
30/07:00pm 24.6 23.1 19.4 73 3.3 SE 26 37 14 20 1013.9 - 0.0
30/06:30pm 24.8 23.2 19.2 71 3.6 ESE 26 41 14 22 1013.6 - 0.0
30/06:00pm 25.3 23.4 18.5 66 4.3 ESE 26 39 14 21 1013.2 1013.2 0.0
30/05:30pm 26.0 24.0 19.2 66 4.4 ESE 28 37 15 20 1013.1 - 0.0
30/05:00pm 26.3 23.4 18.9 63 4.7 ESE 32 41 17 22 1012.8 - 0.0
30/04:30pm 26.6 23.2 19.0 63 4.9 ESE 35 46 19 25 1012.7 - 0.0
30/04:00pm 26.9 24.2 19.3 63 4.9 E 32 44 17 24 1012.6 - 0.0
30/03:30pm 27.5 24.5 19.0 59 5.5 ESE 33 46 18 25 1012.6 - 0.0
30/03:00pm 26.9 24.3 20.0 66 4.5 ESE 33 43 18 23 1012.7 1012.7 0.0
30/02:30pm 27.4 24.2 19.5 62 5.1 ESE 35 50 19 27 1012.8 - 0.0
30/02:00pm 27.8 24.3 18.8 58 5.8 ESE 35 46 19 25 1013.1 - 0.0
30/01:30pm 28.2 25.1 18.9 57 6.0 ESE 33 48 18 26 1013.3 - 0.0
30/01:00pm 27.6 22.8 18.3 57 5.9 ESE 41 56 22 30 1013.7 - 0.0
30/12:53pm 27.8 23.5 17.9 54 6.3 ESE 37 56 20 30 1013.8 - 0.0
30/12:30pm 28.0 24.1 18.7 57 6.0 ESE 37 50 20 27 1014.1 - 0.0
30/12:00pm 27.6 23.5 19.1 59 5.5 SE 39 52 21 28 1014.5 1014.5 0.0
30/11:30am 28.2 25.5 19.7 60 5.5 SE 33 48 18 26 1014.8 - 0.0
30/11:00am 28.0 25.6 20.3 63 5.1 SE 33 46 18 25 1015.1 - 0.0
30/10:30am 27.1 24.6 20.2 66 4.5 SE 33 48 18 26 1015.5 - 0.0
30/10:00am 27.3 25.1 20.4 66 4.5 ESE 32 44 17 24 1015.4 - 0.0
30/09:45am 26.5 24.1 19.9 67 4.3 ESE 32 50 17 27 1015.5 - 0.0
30/09:30am 26.4 24.7 20.5 70 3.9 ESE 30 39 16 21 1015.5 - 0.0
30/09:00am 26.2 25.8 21.0 73 3.4 ESE 24 33 13 18 1015.4 1015.4 0.0
30/08:30am 25.0 24.6 20.9 78 2.7 SE 24 33 13 18 1015.3 - 0.0
30/08:00am 24.6 24.1 20.7 79 2.6 SE 24 35 13 19 1015.2 - 0.0
30/07:30am 24.5 24.8 20.8 80 2.4 SE 20 30 11 16 1015.1 - 0.0
30/07:00am 24.4 24.2 20.5 79 2.5 SE 22 35 12 19 1014.8 - 0.0
30/06:30am 24.3 23.2 20.2 78 2.7 ESE 26 35 14 19 1014.6 - 0.0
30/06:00am 24.2 24.3 20.3 79 2.5 SE 20 30 11 16 1014.5 1014.5 0.0
30/05:30am 24.3 23.6 20.2 78 2.7 SE 24 30 13 16 1014.4 - 0.0
30/05:00am 24.3 22.9 19.6 75 3.0 SE 26 35 14 19 1014.2 - 0.0
30/04:30am 24.2 22.5 19.7 76 2.9 SE 28 39 15 21 1014.0 - 0.0
30/04:00am 23.9 23.0 19.8 78 2.6 ESE 24 33 13 18 1013.9 - 0.0
30/03:30am 23.8 23.9 19.9 79 2.5 SE 19 28 10 15 1014.0 - 0.0
30/03:00am 23.9 22.9 19.6 77 2.8 SE 24 35 13 19 1014.0 1014.0 0.0
30/02:30am 24.1 22.5 20.0 78 2.6 SE 28 39 15 21 1014.2 - 0.0
30/02:00am 24.3 22.0 19.4 74 3.1 SE 30 46 16 25 1014.4 - 0.0
30/01:30am 24.5 23.4 20.2 77 2.8 SE 26 39 14 21 1014.6 - 0.0
30/01:00am 24.6 24.0 20.5 78 2.7 SE 24 37 13 20 1014.8 - 0.0
30/12:30am 24.4 24.5 20.3 78 2.7 SE 20 32 11 17 1015.1 - 0.0
30/12:00am 24.2 23.9 20.3 79 2.5 SE 22 33 12 18 1015.1 1015.1 0.0
 
Date/Time
EST
Temp
°C
App
Temp
°C
Dew
Point
Rel
Hum
%
Delta-T
°C
Wind Press
QNH
hPa
Press
MSL
hPa
Rain
since 9 am
mm
Dir
 
Spd
km/h
Gust
km/h
Spd
kts
Gust
kts
29/11:30pm 24.2 23.0 20.1 78 2.7 SE 26 39 14 21 1015.2 - 0.0
29/11:00pm 24.3 24.0 20.4 79 2.5 SE 22 37 12 20 1015.3 - 0.0
29/10:30pm 24.2 24.5 20.3 79 2.5 SSE 19 30 10 16 1015.5 - 0.0
29/10:00pm 24.4 24.5 20.3 78 2.7 SE 20 37 11 20 1015.5 - 0.0
29/09:30pm 24.5 23.3 20.0 76 2.9 SE 26 37 14 20 1015.5 - 0.0
29/09:00pm 24.6 22.3 20.1 76 2.9 SE 32 44 17 24 1015.6 1015.6 0.0
29/08:30pm 24.6 23.8 20.1 76 2.9 SE 24 35 13 19 1015.4 - 0.0
29/08:00pm 24.8 23.7 20.3 76 2.9 SE 26 39 14 21 1015.1 - 0.0
29/07:30pm 24.5 23.9 20.4 78 2.7 SE 24 35 13 19 1014.8 - 0.0
29/07:00pm 24.9 22.6 20.2 75 3.1 SE 32 52 17 28 1014.4 - 0.0
29/06:52pm 24.9 22.7 20.4 76 2.9 SE 32 52 17 28 1014.4 - 0.0
29/06:30pm 25.1 23.2 20.1 74 3.2 SE 30 41 16 22 1014.3 - 0.0
29/06:00pm 25.2 22.7 19.8 72 3.5 SE 32 50 17 27 1014.3 1014.3 0.0
29/05:59pm 25.1 22.7 19.9 73 3.4 SE 32 50 17 27 1014.2 - 0.0
29/05:30pm 26.0 23.7 20.6 72 3.5 ESE 33 46 18 25 1014.0 - 0.0
29/05:00pm 26.2 24.5 20.5 71 3.7 SE 30 44 16 24 1013.6 - 0.0
29/04:30pm 26.6 23.3 20.0 67 4.3 ESE 37 50 20 27 1013.3 - 0.0
29/04:17pm 26.6 23.8 20.2 68 4.2 ESE 35 54 19 29 1013.2 - 0.0
29/04:00pm 26.9 23.4 20.3 67 4.3 ESE 39 52 21 28 1013.1 - 0.0
29/03:43pm 26.8 23.7 19.7 65 4.6 SE 35 56 19 30 1013.1 - 0.0
29/03:30pm 27.5 24.4 19.6 62 5.1 ESE 35 50 19 27 1013.1 - 0.0
29/03:08pm 27.7 24.8 20.0 63 5.0 ESE 35 54 19 29 1013.1 - 0.0
29/03:00pm 27.6 24.0 20.2 64 4.8 ESE 39 50 21 27 1013.2 1013.2 0.0
29/02:30pm 27.5 24.6 20.1 64 4.8 ESE 35 54 19 29 1013.5 - 0.0
29/02:23pm 28.6 26.2 21.1 64 5.0 ESE 35 54 19 29 1013.6 - 0.0
29/02:00pm 28.2 26.1 20.5 63 5.1 SE 32 46 17 25 1013.9 - 0.0
29/01:30pm 27.7 23.9 19.8 62 5.1 ESE 39 52 21 28 1014.2 - 0.0
29/01:00pm 27.8 24.5 20.1 63 5.0 ESE 37 50 20 27 1014.6 - 0.0
29/12:30pm 28.3 25.1 20.3 62 5.3 ESE 37 50 20 27 1015.2 - 0.0
29/12:13pm 27.8 25.1 20.4 64 4.9 ESE 35 54 19 29 1015.4 - 0.0
29/12:00pm 28.0 24.8 20.3 63 5.1 ESE 37 52 20 28 1015.6 1015.6 0.0
29/11:43am 28.2 25.5 20.5 63 5.1 ESE 35 54 19 29 1015.7 - 0.0
29/11:30am 28.1 25.1 20.6 63 4.9 ESE 37 54 20 29 1015.8 - 0.0
29/11:14am 27.1 24.3 20.2 66 4.5 ESE 35 54 19 29 1015.9 - 0.0
29/11:00am 27.5 25.5 20.8 67 4.4 ESE 32 46 17 25 1016.1 - 0.0
29/10:30am 26.1 22.8 20.0 69 4.0 ESE 37 50 20 27 1016.2 - 0.0
29/10:00am 26.4 24.3 20.9 72 3.6 ESE 33 46 18 25 1016.2 - 0.0
29/09:41am 26.4 25.0 20.5 70 3.9 SE 28 46 15 25 1016.2 - 0.0
29/09:30am 26.0 23.8 20.3 71 3.7 SE 32 44 17 24 1016.2 - 0.0
29/09:00am 25.9 24.4 20.9 74 3.3 SE 30 39 16 21 1016.1 1016.1 0.4
29/08:30am 25.6 24.5 21.1 76 3.0 SE 28 37 15 20 1015.7 - 0.4
29/08:00am 25.1 24.7 21.0 78 2.7 SE 24 33 13 18 1015.4 - 0.4
29/07:30am 24.4 24.5 21.1 82 2.2 SE 22 33 12 18 1015.0 - 0.4
29/07:00am 23.8 24.8 21.1 85 1.8 SSE 17 28 9 15 1014.8 - 0.4
29/06:30am 23.8 25.2 21.1 85 1.8 SE 15 20 8 11 1014.5 - 0.4
29/06:00am 23.7 24.7 21.0 85 1.8 SSE 17 26 9 14 1014.2 1014.2 0.4
29/05:30am 23.8 24.7 20.9 84 1.9 SE 17 24 9 13 1014.0 - 0.4
29/05:00am 23.9 24.2 20.8 83 2.0 SE 20 30 11 16 1013.9 - 0.4
29/04:30am 24.0 24.0 20.9 83 2.0 SE 22 30 12 16 1013.8 - 0.4
29/04:00am 23.9 24.2 20.8 83 2.0 SE 20 30 11 16 1013.7 - 0.4
29/03:30am 23.9 23.8 20.8 83 2.0 SE 22 30 12 16 1013.6 - 0.4
29/03:00am 24.1 23.3 20.8 82 2.2 SE 26 35 14 19 1013.6 1013.6 0.4
29/02:30am 24.2 24.1 20.7 81 2.3 SE 22 32 12 17 1013.8 - 0.4
29/02:00am 23.9 23.7 20.6 82 2.2 SE 22 33 12 18 1014.0 - 0.4
29/01:30am 23.9 23.8 20.8 83 2.0 SE 22 32 12 17 1014.3 - 0.4
29/01:00am 24.0 23.5 20.7 82 2.2 SE 24 33 13 18 1014.6 - 0.4
29/12:30am 24.1 24.0 20.8 82 2.2 SE 22 33 12 18 1014.7 - 0.4
29/12:00am 24.1 23.3 20.8 82 2.2 SE 26 39 14 21 1014.9 1014.9 0.4
 
Date/Time
EST
Temp
°C
App
Temp
°C
Dew
Point
Rel
Hum
%
Delta-T
°C
Wind Press
QNH
hPa
Press
MSL
hPa
Rain
since 9 am
mm
Dir
 
Spd
km/h
Gust
km/h
Spd
kts
Gust
kts
28/11:30pm 24.1 24.5 21.0 83 2.0 SE 20 30 11 16 1015.0 - 0.4
28/11:00pm 24.2 24.5 20.7 81 2.3 SE 20 30 11 16 1015.2 - 0.4
28/10:30pm 24.5 23.6 20.6 79 2.5 SE 26 41 14 22 1015.3 - 0.4
28/10:00pm 24.5 24.9 21.0 81 2.3 SE 20 32 11 17 1015.3 - 0.4
28/09:30pm 24.3 25.5 21.4 84 1.9 SE 17 26 9 14 1015.1 - 0.4
28/09:00pm 23.9 24.6 21.2 85 1.8 SSE 19 22 10 12 1015.1 1015.1 0.4
28/08:30pm 23.6 24.4 20.7 84 1.9 SSE 17 28 9 15 1014.7 - 0.4
28/08:00pm 23.3 23.5 20.2 83 2.0 SE 19 30 10 16 1014.6 - 0.4
28/07:30pm 23.3 22.8 20.8 86 1.6 SSE 24 35 13 19 1014.3 - 0.4
28/07:04pm 22.5 22.0 20.8 90 1.1 SE 24 33 13 18 1014.0 - 0.4
28/07:00pm 22.3 21.5 20.8 91 1.0 SE 26 33 14 18 1014.1 - 0.4
28/06:36pm 22.4 21.0 20.5 89 1.2 ESE 28 48 15 26 1014.1 - 0.4
28/06:30pm 23.5 23.8 21.6 89 1.3 SE 22 33 12 18 1013.9 - 0.4
28/06:01pm 23.3 24.2 21.9 92 0.9 SE 20 28 11 15 1013.7 - 0.4
28/06:00pm 23.3 24.2 21.9 92 0.9 SE 20 28 11 15 1013.7 1013.7 0.4
28/05:53pm 23.3 24.2 21.9 92 0.9 SE 20 30 11 16 1013.7 - 0.4
28/05:44pm 23.9 24.0 21.8 88 1.4 SE 24 35 13 19 1013.7 - 0.2
28/05:43pm 24.2 24.3 21.9 87 1.5 SE 24 35 13 19 1013.7 - 0.2
28/05:30pm 24.8 24.2 21.3 81 2.3 SE 26 39 14 21 1013.5 - 0.0
28/05:00pm 24.7 25.3 21.4 82 2.2 SE 20 32 11 17 1013.3 - 0.0
28/04:30pm 23.8 23.8 21.7 88 1.4 SE 24 33 13 18 1013.2 - 0.0
28/04:26pm 23.7 23.4 21.8 89 1.3 SE 26 35 14 19 1013.1 - 0.0
28/04:00pm 24.1 21.9 21.4 85 1.8 ESE 35 50 19 27 1013.2 - 0.0
28/03:59pm 24.2 21.8 21.1 83 2.0 ESE 35 50 19 27 1013.2 - 0.0
28/03:30pm 26.1 25.3 20.9 73 3.4 ESE 26 35 14 19 1013.0 - 0.0
28/03:10pm 26.2 23.2 19.8 68 4.2 SE 35 54 19 29 1013.1 - 0.0
28/03:00pm 27.5 25.9 20.1 64 4.8 ESE 28 41 15 22 1013.0 1013.0 0.0
28/02:30pm 28.0 26.2 20.3 63 5.1 ESE 30 39 16 21 1013.1 - 0.0
28/02:00pm 27.2 24.4 20.3 66 4.5 ESE 35 46 19 25 1013.5 - 0.0
28/01:30pm 27.1 24.8 20.2 66 4.5 ESE 32 43 17 23 1013.9 - 0.0
28/01:00pm 26.9 25.3 20.7 69 4.1 ESE 30 39 16 21 1014.4 - 0.0
28/12:30pm 27.2 24.8 20.3 66 4.5 ESE 33 43 18 23 1014.7 - 0.0
28/12:00pm 28.1 26.3 21.1 65 4.6 ESE 32 41 17 22 1015.0 1015.0 0.0
28/11:30am 27.1 24.7 20.4 66 4.4 ESE 33 43 18 23 1015.4 - 0.0
28/11:00am 26.8 24.2 19.9 66 4.5 ESE 33 43 18 23 1015.6 - 0.0
28/10:30am 27.2 25.4 20.3 66 4.5 ESE 30 41 16 22 1015.7 - 0.0
28/10:00am 26.7 25.0 20.5 69 4.1 ESE 30 41 16 22 1015.7 - 0.0
28/09:30am 26.4 24.9 20.9 72 3.6 ESE 30 41 16 22 1015.7 - 0.0
28/09:00am 25.9 24.3 20.7 73 3.4 ESE 30 41 16 22 1015.7 1015.7 0.4
28/08:30am 25.2 24.5 21.1 78 2.7 ESE 26 33 14 18 1015.6 - 0.4
28/08:00am 24.8 24.2 21.3 81 2.3 ESE 26 39 14 21 1015.3 - 0.4
28/07:30am 24.1 25.4 21.6 86 1.7 SE 17 24 9 13 1015.0 - 0.4
28/07:00am 23.5 25.4 21.4 88 1.4 SE 13 19 7 10 1014.5 - 0.4
28/06:30am 23.4 24.4 21.1 87 1.5 SE 17 22 9 12 1014.3 - 0.4
28/06:00am 23.5 23.4 20.8 85 1.8 ESE 22 33 12 18 1014.1 1014.1 0.4
28/05:30am 23.5 22.8 21.0 86 1.6 SE 26 35 14 19 1013.9 - 0.4
28/05:00am 24.3 24.2 20.8 81 2.3 SE 22 28 12 15 1013.6 - 0.4
28/04:30am 24.3 23.7 20.4 79 2.5 SE 24 39 13 21 1013.6 - 0.4
28/04:00am 24.1 23.5 20.6 81 2.3 SE 24 35 13 19 1013.4 - 0.4
28/03:30am 24.1 24.2 21.2 84 1.9 SE 22 30 12 16 1013.5 - 0.4
28/03:00am 24.0 24.0 20.9 83 2.0 SE 22 33 12 18 1013.6 1013.6 0.4
28/02:30am 24.0 24.5 21.1 84 1.9 SE 20 30 11 16 1013.8 - 0.4
28/02:00am 24.2 23.8 20.9 82 2.2 ESE 24 39 13 21 1013.9 - 0.4
28/01:30am 24.3 22.7 20.8 81 2.3 ESE 30 41 16 22 1014.2 - 0.4
28/01:00am 24.3 22.6 20.6 80 2.4 ESE 30 43 16 23 1014.6 - 0.4
28/12:30am 24.4 22.9 20.3 78 2.7 SE 28 44 15 24 1015.0 - 0.4
28/12:00am 24.3 24.1 20.6 80 2.4 SE 22 30 12 16 1015.3 1015.3 0.4
 
Date/Time
EST
Temp
°C
App
Temp
°C
Dew
Point
Rel
Hum
%
Delta-T
°C
Wind Press
QNH
hPa
Press
MSL
hPa
Rain
since 9 am
mm
Dir
 
Spd
km/h
Gust
km/h
Spd
kts
Gust
kts
27/11:30pm 24.1 24.7 21.0 83 2.0 SE 19 26 10 14 1015.6 - 0.4
27/11:00pm 24.1 24.4 20.8 82 2.2 SSE 20 33 11 18 1015.9 - 0.4

Other Formats:

Comma delimited format used in spreadsheet applications
http://www.bom.gov.au/fwo/IDQ60801/IDQ60801.94174.axf

JavaScript Object Notation format (JSON) in row-major order
http://www.bom.gov.au/fwo/IDQ60801/IDQ60801.94174.json